Ashton, Nebraska
Current Conditions -  °F | °C
As of 6:53 AM on Wednesday 22 Oct 2014 (Local Time) from KODX Reporting Station
Clear Clear  
Wind Chill: 54°   Ceiling: Unl
Heat Index: 54°   Visibility: 7mi
Dew Point: 52°   Wind: 6mph
Humidity: 93%   Direction: 140°SE
Pressure: 29.95"   Gusts: NA
Location:  41.25°N, 98.79°W
Report Text: KODX 221153Z AUTO 14005KT 7SM CLR 12/11 A2995 RMK AO2 SLP140 T01220111 10139 20117 53004
Loading
Personal Weather Stations






























Interactive Weather Map
Tropical Storm Tracking
New forecast layout! Learn more

10-Day Weather Forecast

Advertisements
Track Severe Weather on mobile